createdAt,value
2023-04-01T04:15:20.500Z,9.43
2023-04-01T04:16:27.645Z,9.40
2023-04-01T04:17:20.469Z,9.42
2023-04-01T04:18:20.467Z,9.40
2023-04-01T04:19:20.436Z,9.40
2023-04-01T04:20:20.415Z,9.40
2023-04-01T04:21:20.412Z,9.40
2023-04-01T04:22:20.404Z,9.40
2023-04-01T04:23:20.406Z,9.42
2023-04-01T04:24:20.381Z,9.40
2023-04-01T04:25:20.385Z,9.40
2023-04-01T04:26:20.336Z,9.42
2023-04-01T04:27:20.333Z,9.40
2023-04-01T04:28:20.334Z,9.39
2023-04-01T04:29:20.300Z,9.39
2023-04-01T04:30:20.315Z,9.39
2023-04-01T04:31:20.298Z,9.40
2023-04-01T04:32:20.274Z,9.40
2023-04-01T04:33:20.274Z,9.40
2023-04-01T04:34:20.245Z,9.40
2023-04-01T04:35:20.234Z,9.39
2023-04-01T04:36:20.247Z,9.38
2023-04-01T04:37:20.202Z,9.38
2023-04-01T04:38:20.202Z,9.35
2023-04-01T04:39:20.179Z,9.35
2023-04-01T04:40:20.157Z,9.35
2023-04-01T04:41:20.174Z,9.35
2023-04-01T04:42:20.142Z,9.35
2023-04-01T04:43:20.142Z,9.34
2023-04-01T04:44:20.129Z,9.35
2023-04-01T04:45:20.110Z,9.34
2023-04-01T04:46:20.147Z,9.35
2023-04-01T04:47:20.334Z,9.34
2023-04-01T04:48:20.185Z,9.32
2023-04-01T04:49:20.059Z,9.35
2023-04-01T04:50:20.051Z,9.34
2023-04-01T04:51:20.024Z,9.34
2023-04-01T04:52:20.013Z,9.32
2023-04-01T04:53:20.052Z,9.31
2023-04-01T04:54:19.996Z,9.32
2023-04-01T04:55:19.972Z,9.34
2023-04-01T04:56:19.975Z,9.34
2023-04-01T04:57:19.996Z,9.31
2023-04-01T04:58:19.957Z,9.32
2023-04-01T04:59:19.945Z,9.34
2023-04-01T05:00:19.906Z,9.34
2023-04-01T05:01:19.936Z,9.34
2023-04-01T05:02:19.911Z,9.35
2023-04-01T05:03:19.936Z,9.32
2023-04-01T05:04:19.877Z,9.34
2023-04-01T05:05:19.848Z,9.34
2023-04-01T05:06:22.216Z,9.35
2023-04-01T05:07:19.832Z,9.38
2023-04-01T05:08:19.826Z,9.39
2023-04-01T05:09:19.818Z,9.42
2023-04-01T05:10:19.774Z,9.45
2023-04-01T05:11:19.768Z,9.52
2023-04-01T05:12:19.749Z,9.49
2023-04-01T05:13:19.744Z,9.45
2023-04-01T05:14:19.743Z,9.40
2023-04-01T05:15:19.714Z,9.38
2023-04-01T05:16:19.725Z,9.39
2023-04-01T05:17:19.687Z,9.40
2023-04-01T05:18:19.680Z,9.39
2023-04-01T05:19:19.675Z,9.39
2023-04-01T05:20:19.652Z,9.38
2023-04-01T05:21:19.639Z,9.38
2023-04-01T05:22:19.624Z,9.39
2023-04-01T05:23:19.613Z,9.39
2023-04-01T05:24:19.603Z,9.40
2023-04-01T05:25:19.593Z,9.40
2023-04-01T05:26:19.569Z,9.39
2023-04-01T05:27:19.561Z,9.39
2023-04-01T05:28:19.556Z,9.39
2023-04-01T05:29:19.566Z,9.40
2023-04-01T05:30:19.523Z,9.40
2023-04-01T05:31:19.557Z,9.42
2023-04-01T05:32:19.511Z,9.40
2023-04-01T05:33:19.490Z,9.42
2023-04-01T05:34:19.493Z,9.45
2023-04-01T05:35:19.467Z,9.43
2023-04-01T05:36:19.469Z,9.45
2023-04-01T05:37:19.434Z,9.48
2023-04-01T05:38:19.417Z,9.46
2023-04-01T05:39:19.426Z,9.45
2023-04-01T05:40:19.394Z,9.46
2023-04-01T05:41:19.390Z,9.48
2023-04-01T05:42:19.378Z,9.48
2023-04-01T05:43:19.356Z,9.46
2023-04-01T05:44:19.364Z,9.49
2023-04-01T05:45:19.360Z,9.50
2023-04-01T05:46:19.410Z,9.50
2023-04-01T05:47:19.319Z,9.50
2023-04-01T05:48:19.326Z,9.50
2023-04-01T05:49:19.295Z,9.52
2023-04-01T05:50:19.262Z,9.50
2023-04-01T05:51:19.256Z,9.50
2023-04-01T05:52:19.252Z,9.50
2023-04-01T05:53:19.253Z,9.52
2023-04-01T05:54:19.227Z,9.52
2023-04-01T05:55:19.207Z,9.52
2023-04-01T05:56:19.195Z,9.52
2023-04-01T05:57:19.289Z,9.52
2023-04-01T05:58:19.160Z,9.50
2023-04-01T05:59:19.196Z,9.52
2023-04-01T06:00:19.136Z,9.53
2023-04-01T06:01:19.132Z,9.53
2023-04-01T06:02:19.150Z,9.56
2023-04-01T06:03:19.245Z,9.56
2023-04-01T06:04:19.166Z,9.56
2023-04-01T06:05:19.107Z,9.56
2023-04-01T06:06:19.064Z,9.57
2023-04-01T06:07:19.053Z,9.56
2023-04-01T06:08:20.401Z,9.56
2023-04-01T06:09:19.075Z,9.53
2023-04-01T06:10:19.019Z,9.57
2023-04-01T06:11:18.998Z,9.58
2023-04-01T06:12:18.980Z,9.61
2023-04-01T06:13:18.979Z,9.63
2023-04-01T06:14:18.969Z,9.64
2023-04-01T06:15:18.963Z,9.66
2023-04-01T06:16:18.941Z,9.66
2023-04-01T06:17:18.921Z,9.61
2023-04-01T06:18:19.025Z,9.63
2023-04-01T06:19:18.904Z,9.64
2023-04-01T06:20:18.886Z,9.63
2023-04-01T06:21:18.883Z,9.66
2023-04-01T06:22:18.855Z,9.67
2023-04-01T06:23:18.837Z,9.68
2023-04-01T06:24:18.839Z,9.71
2023-04-01T06:25:18.811Z,9.68
2023-04-01T06:26:18.796Z,9.68
2023-04-01T06:27:18.788Z,9.67
2023-04-01T06:28:18.815Z,9.70
2023-04-01T06:29:18.845Z,9.68
2023-04-01T06:30:18.778Z,9.68
2023-04-01T06:31:18.811Z,9.71
2023-04-01T06:32:18.855Z,9.73
2023-04-01T06:33:18.712Z,9.75
2023-04-01T06:34:18.717Z,9.73
2023-04-01T06:35:18.689Z,9.73
2023-04-01T06:36:18.722Z,9.73
2023-04-01T06:37:18.666Z,9.76
2023-04-01T06:38:18.668Z,9.76
2023-04-01T06:39:18.629Z,9.76
2023-04-01T06:40:18.648Z,9.79
2023-04-01T06:41:18.613Z,9.79
2023-04-01T06:42:18.618Z,9.81
2023-04-01T06:43:18.580Z,9.81
2023-04-01T06:44:18.576Z,9.78
2023-04-01T06:45:18.577Z,9.76
2023-04-01T06:46:18.592Z,9.78
2023-04-01T06:47:18.534Z,9.81
2023-04-01T06:48:18.521Z,9.81
2023-04-01T06:49:18.510Z,9.83
2023-04-01T06:50:18.512Z,9.86
2023-04-01T06:51:18.489Z,9.86
2023-04-01T06:52:18.481Z,9.86
2023-04-01T06:53:18.463Z,9.88
2023-04-01T06:54:18.449Z,9.88
2023-04-01T06:55:18.453Z,9.88
2023-04-01T06:56:18.579Z,9.91
2023-04-01T06:57:18.451Z,9.91
2023-04-01T06:58:18.400Z,9.88
2023-04-01T06:59:18.382Z,9.85
2023-04-01T07:00:18.382Z,9.82
2023-04-01T07:01:18.413Z,9.81
2023-04-01T07:02:18.352Z,9.81
2023-04-01T07:03:18.324Z,9.82
2023-04-01T07:04:18.378Z,9.81
2023-04-01T07:05:18.304Z,9.82
2023-04-01T07:06:18.294Z,9.81
2023-04-01T07:07:18.268Z,9.83
2023-04-01T07:08:18.260Z,9.82
2023-04-01T07:09:18.242Z,9.83
2023-04-01T07:10:18.256Z,9.83
2023-04-01T07:11:18.221Z,9.88
2023-04-01T07:12:18.319Z,9.88
2023-04-01T07:13:18.200Z,9.88
2023-04-01T07:14:18.179Z,9.88
2023-04-01T07:15:18.351Z,9.89
2023-04-01T07:16:18.199Z,9.91
2023-04-01T07:17:18.140Z,9.96
2023-04-01T07:18:18.257Z,9.96
2023-04-01T07:19:18.128Z,9.97
2023-04-01T07:20:18.107Z,9.94
2023-04-01T07:21:18.095Z,9.91
2023-04-01T07:22:18.090Z,9.93
2023-04-01T07:23:18.060Z,9.93
2023-04-01T07:24:18.039Z,9.89
2023-04-01T07:25:18.059Z,9.88
2023-04-01T07:26:18.008Z,9.88
2023-04-01T07:27:17.999Z,9.91
2023-04-01T07:28:18.145Z,9.88
2023-04-01T07:29:18.043Z,9.91
2023-04-01T07:30:17.977Z,9.94
2023-04-01T07:31:18.039Z,9.97
2023-04-01T07:32:17.936Z,9.99
2023-04-01T07:33:17.998Z,10.00
2023-04-01T07:34:17.900Z,9.97
2023-04-01T07:35:17.913Z,9.91
2023-04-01T07:36:17.916Z,9.89
2023-04-01T07:37:17.874Z,9.94
2023-04-01T07:38:17.899Z,9.96
2023-04-01T07:39:17.908Z,10.00
2023-04-01T07:40:17.837Z,10.03
2023-04-01T07:41:18.297Z,10.04
2023-04-01T07:42:17.823Z,10.06
2023-04-01T07:43:17.806Z,10.09
2023-04-01T07:44:17.799Z,10.07
2023-04-01T07:45:17.759Z,10.09
2023-04-01T07:46:17.785Z,10.10
2023-04-01T07:47:17.812Z,10.06
2023-04-01T07:48:17.714Z,10.04
2023-04-01T07:49:17.860Z,10.04
2023-04-01T07:50:17.691Z,10.07
2023-04-01T07:51:17.691Z,10.12
2023-04-01T07:52:17.678Z,10.09
2023-04-01T07:53:17.659Z,10.09
2023-04-01T07:54:17.638Z,10.10
2023-04-01T07:55:17.626Z,10.09
2023-04-01T07:56:17.618Z,10.09
2023-04-01T07:57:17.619Z,10.09
2023-04-01T07:58:17.579Z,10.10
2023-04-01T07:59:17.573Z,10.12
2023-04-01T08:00:17.559Z,10.14
2023-04-01T08:01:17.557Z,10.10
2023-04-01T08:02:17.576Z,10.10
2023-04-01T08:03:17.848Z,10.09
2023-04-01T08:04:17.656Z,10.09
2023-04-01T08:05:17.491Z,10.10
2023-04-01T08:06:17.514Z,10.15
2023-04-01T08:07:17.460Z,10.12
2023-04-01T08:08:17.455Z,10.10
2023-04-01T08:09:17.437Z,10.10
2023-04-01T08:10:17.419Z,10.12
2023-04-01T08:11:17.419Z,10.10
2023-04-01T08:12:17.391Z,10.12
2023-04-01T08:13:17.376Z,10.09
2023-04-01T08:14:17.357Z,10.07
2023-04-01T08:15:17.346Z,10.07
2023-04-01T08:16:17.345Z,10.06
2023-04-01T08:17:17.330Z,10.03
2023-04-01T08:18:17.302Z,10.06
2023-04-01T08:19:17.294Z,10.03
2023-04-01T08:20:17.284Z,10.04
2023-04-01T08:21:17.285Z,10.07
2023-04-01T08:22:17.255Z,10.07
2023-04-01T08:23:17.244Z,10.07
2023-04-01T08:24:17.221Z,10.14
2023-04-01T08:25:17.213Z,10.12
2023-04-01T08:26:17.211Z,10.14
2023-04-01T08:27:17.183Z,10.10
2023-04-01T08:28:17.176Z,10.17
2023-04-01T08:29:17.164Z,10.15
2023-04-01T08:30:17.143Z,10.10
2023-04-01T08:31:17.298Z,10.15
2023-04-01T08:32:17.189Z,10.17
2023-04-01T08:33:17.111Z,10.22
2023-04-01T08:34:17.086Z,10.24
2023-04-01T08:35:17.083Z,10.22
2023-04-01T08:36:17.125Z,10.22
2023-04-01T08:37:17.068Z,10.21
2023-04-01T08:38:17.034Z,10.30
2023-04-01T08:39:17.053Z,10.25
2023-04-01T08:40:17.010Z,10.28
2023-04-01T08:41:17.006Z,10.26
2023-04-01T08:42:16.972Z,10.30
2023-04-01T08:43:16.979Z,10.32
2023-04-01T08:44:16.973Z,10.36
2023-04-01T08:45:16.937Z,10.39
2023-04-01T08:46:16.972Z,10.47
2023-04-01T08:47:16.920Z,10.51
2023-04-01T08:48:16.890Z,10.51
2023-04-01T08:49:16.885Z,10.47
2023-04-01T08:50:16.866Z,10.44
2023-04-01T08:51:16.867Z,10.52
2023-04-01T08:52:16.848Z,10.53
2023-04-01T08:53:16.841Z,10.53
2023-04-01T08:54:16.811Z,10.56
2023-04-01T08:55:16.813Z,10.58
2023-04-01T08:56:16.802Z,10.58
2023-04-01T08:57:16.806Z,10.55
2023-04-01T08:58:16.759Z,10.53
2023-04-01T08:59:16.749Z,10.52
2023-04-01T09:00:16.742Z,10.43
2023-04-01T09:01:16.727Z,10.36
2023-04-01T09:02:16.831Z,10.33
2023-04-01T09:03:16.837Z,10.40
2023-04-01T09:04:16.731Z,10.39
2023-04-01T09:05:16.669Z,10.33
2023-04-01T09:06:16.654Z,10.34
2023-04-01T09:07:16.659Z,10.37
2023-04-01T09:08:16.684Z,10.39
2023-04-01T09:09:16.622Z,10.40
2023-04-01T09:10:16.594Z,10.46
2023-04-01T09:11:16.591Z,10.52
2023-04-01T09:12:16.589Z,10.55
2023-04-01T09:13:16.573Z,10.46
2023-04-01T09:14:16.548Z,10.36
2023-04-01T09:15:16.579Z,10.37
2023-04-01T09:16:16.573Z,10.36
2023-04-01T09:17:16.532Z,10.43
2023-04-01T09:18:16.484Z,10.47
2023-04-01T09:19:16.489Z,10.44
2023-04-01T09:20:16.471Z,10.46
2023-04-01T09:21:16.463Z,10.42
2023-04-01T09:22:16.453Z,10.42
2023-04-01T09:23:16.429Z,10.47
2023-04-01T09:24:16.414Z,10.53
2023-04-01T09:25:16.481Z,10.56
2023-04-01T09:26:16.390Z,10.51
2023-04-01T09:27:16.402Z,10.43
2023-04-01T09:28:16.356Z,10.36
2023-04-01T09:29:16.350Z,10.40
2023-04-01T09:30:16.336Z,10.42
2023-04-01T09:31:16.399Z,10.43
2023-04-01T09:32:16.314Z,10.47
2023-04-01T09:33:16.292Z,10.56
2023-04-01T09:34:16.275Z,10.60
2023-04-01T09:35:16.275Z,10.51
2023-04-01T09:36:16.261Z,10.47
2023-04-01T09:37:16.250Z,10.51
2023-04-01T09:38:16.226Z,10.51
2023-04-01T09:39:16.218Z,10.47
2023-04-01T09:40:16.199Z,10.51
2023-04-01T09:41:16.191Z,10.51
2023-04-01T09:42:16.180Z,10.47
2023-04-01T09:43:16.167Z,10.53
2023-04-01T09:44:16.147Z,10.56
2023-04-01T09:45:16.133Z,10.53
2023-04-01T09:46:16.154Z,10.51
2023-04-01T09:47:16.122Z,10.59
2023-04-01T09:48:16.093Z,10.70
2023-04-01T09:49:16.091Z,10.76
2023-04-01T09:50:16.069Z,10.81
2023-04-01T09:51:16.067Z,10.76
2023-04-01T09:52:16.130Z,10.77
2023-04-01T09:53:16.025Z,10.88
2023-04-01T09:54:16.013Z,10.94
2023-04-01T09:55:16.155Z,10.89
2023-04-01T09:56:15.991Z,10.94
2023-04-01T09:57:16.096Z,10.98
2023-04-01T09:58:15.970Z,11.01
2023-04-01T09:59:15.952Z,10.98
2023-04-01T10:00:15.970Z,11.06
2023-04-01T10:01:15.977Z,11.09
2023-04-01T10:02:15.910Z,11.10
2023-04-01T10:03:16.023Z,11.11
2023-04-01T10:04:15.885Z,11.07
2023-04-01T10:05:15.881Z,11.16
2023-04-01T10:06:15.846Z,11.31
2023-04-01T10:07:15.844Z,11.34
2023-04-01T10:08:15.837Z,11.24
2023-04-01T10:09:15.813Z,11.32
2023-04-01T10:10:15.802Z,11.43
2023-04-01T10:11:15.794Z,11.31
2023-04-01T10:12:15.772Z,11.36
2023-04-01T10:13:15.785Z,11.35
2023-04-01T10:14:15.743Z,11.39
2023-04-01T10:15:15.753Z,11.50
2023-04-01T10:16:15.765Z,11.53
2023-04-01T10:17:22.836Z,11.53
2023-04-01T10:18:15.716Z,11.57
2023-04-01T10:19:15.676Z,11.67
2023-04-01T10:20:15.678Z,11.72
2023-04-01T10:21:15.656Z,11.80
2023-04-01T10:22:15.692Z,11.97
2023-04-01T10:23:15.634Z,12.04
2023-04-01T10:24:15.618Z,11.90
2023-04-01T10:25:15.597Z,11.83
2023-04-01T10:26:15.588Z,11.85
2023-04-01T10:27:15.571Z,11.83
2023-04-01T10:28:15.579Z,11.90
2023-04-01T10:29:15.562Z,12.01
2023-04-01T10:30:15.534Z,12.11
2023-04-01T10:31:15.598Z,12.06
2023-04-01T10:32:15.589Z,11.96
2023-04-01T10:33:15.507Z,11.93
2023-04-01T10:34:15.489Z,11.85
2023-04-01T10:35:15.477Z,11.85
2023-04-01T10:36:15.523Z,11.90
2023-04-01T10:37:15.445Z,11.89
2023-04-01T10:38:15.446Z,11.97
2023-04-01T10:39:15.409Z,12.02
2023-04-01T10:40:15.400Z,11.97
2023-04-01T10:41:15.384Z,11.89
2023-04-01T10:42:15.367Z,11.89
2023-04-01T10:43:15.359Z,11.74
2023-04-01T10:44:15.359Z,11.77
2023-04-01T10:45:15.339Z,11.86
2023-04-01T10:46:16.949Z,11.90
2023-04-01T10:47:15.305Z,12.02
2023-04-01T10:48:15.307Z,12.06
2023-04-01T10:49:15.292Z,12.06
2023-04-01T10:50:15.358Z,11.99
2023-04-01T10:51:15.276Z,11.77
2023-04-01T10:52:15.240Z,11.62
2023-04-01T10:53:15.229Z,11.54
2023-04-01T10:54:15.262Z,11.57
2023-04-01T10:55:15.206Z,11.54
2023-04-01T10:56:15.205Z,11.50
2023-04-01T10:57:15.194Z,11.53
2023-04-01T10:58:15.165Z,11.62
2023-04-01T10:59:15.170Z,11.68
2023-04-01T11:00:15.219Z,11.83
2023-04-01T11:01:15.164Z,11.86
2023-04-01T11:02:15.189Z,11.75
2023-04-01T11:03:15.138Z,11.80
2023-04-01T11:04:15.162Z,11.87
2023-04-01T11:05:15.073Z,11.94
2023-04-01T11:06:15.051Z,11.97
2023-04-01T11:07:15.051Z,11.94
2023-04-01T11:08:15.024Z,11.87
2023-04-01T11:09:15.044Z,11.86
2023-04-01T11:10:15.001Z,11.89
2023-04-01T11:11:15.016Z,11.93
2023-04-01T11:12:14.981Z,11.85
2023-04-01T11:13:14.982Z,11.80
2023-04-01T11:14:14.963Z,11.75
2023-04-01T11:15:14.938Z,11.78
2023-04-01T11:16:15.824Z,11.85
2023-04-01T11:17:14.907Z,11.99
2023-04-01T11:18:14.893Z,12.15
2023-04-01T11:19:14.889Z,12.26
2023-04-01T11:20:14.907Z,12.30
2023-04-01T11:21:14.849Z,12.37
2023-04-01T11:22:14.840Z,12.48
2023-04-01T11:23:14.830Z,12.64
2023-04-01T11:24:14.827Z,12.84
2023-04-01T11:25:14.834Z,13.14
2023-04-01T11:26:14.799Z,13.40
2023-04-01T11:27:14.836Z,13.44
2023-04-01T11:28:14.763Z,13.44
2023-04-01T11:29:14.761Z,13.32
2023-04-01T11:30:14.738Z,13.11
2023-04-01T11:31:14.744Z,13.15
2023-04-01T11:32:14.698Z,13.07
2023-04-01T11:33:14.689Z,12.84
2023-04-01T11:34:14.690Z,12.59
2023-04-01T11:35:14.670Z,12.49
2023-04-01T11:36:14.721Z,12.38
2023-04-01T11:37:14.640Z,12.12
2023-04-01T11:38:14.625Z,11.96
2023-04-01T11:39:14.640Z,11.85
2023-04-01T11:40:14.598Z,11.72
2023-04-01T11:41:14.589Z,11.54
2023-04-01T11:42:14.566Z,11.50
2023-04-01T11:43:26.348Z,11.49
2023-04-01T11:44:15.549Z,11.41
2023-04-01T11:45:14.541Z,11.35
2023-04-01T11:46:14.537Z,11.34
2023-04-01T11:47:14.514Z,11.36
2023-04-01T11:48:14.518Z,11.41
2023-04-01T11:49:14.491Z,11.41
2023-04-01T11:50:14.475Z,11.41
2023-04-01T11:51:14.454Z,11.43
2023-04-01T11:52:14.441Z,11.43
2023-04-01T11:53:14.441Z,11.47
2023-04-01T11:54:14.429Z,11.50
2023-04-01T11:55:14.398Z,11.52
2023-04-01T11:56:14.400Z,11.50
2023-04-01T11:57:14.455Z,11.53
2023-04-01T11:58:14.366Z,11.57
2023-04-01T11:59:14.355Z,11.61
2023-04-01T12:00:14.339Z,11.64
2023-04-01T12:01:14.321Z,11.67
2023-04-01T12:02:14.335Z,11.68
2023-04-01T12:03:14.388Z,11.65
2023-04-01T12:04:14.454Z,11.65
2023-04-01T12:05:14.322Z,11.57
2023-04-01T12:06:14.269Z,11.54
2023-04-01T12:07:14.270Z,11.57
2023-04-01T12:08:14.224Z,11.61
2023-04-01T12:09:14.219Z,11.64
2023-04-01T12:10:14.213Z,11.61
2023-04-01T12:11:14.202Z,11.68
2023-04-01T12:12:14.181Z,11.71
2023-04-01T12:13:14.166Z,11.68
2023-04-01T12:14:14.349Z,11.67
2023-04-01T12:15:14.153Z,11.62
2023-04-01T12:16:14.162Z,11.64
2023-04-01T12:17:14.136Z,11.74
2023-04-01T12:18:14.152Z,11.80
2023-04-01T12:19:14.099Z,11.78
2023-04-01T12:20:14.093Z,11.86
2023-04-01T12:21:14.060Z,11.90
2023-04-01T12:22:14.054Z,11.97
2023-04-01T12:23:14.037Z,12.04
2023-04-01T12:24:14.028Z,12.05
2023-04-01T12:25:14.036Z,12.06
2023-04-01T12:26:13.992Z,12.02
2023-04-01T12:27:13.985Z,11.96
2023-04-01T12:28:13.971Z,11.82
2023-04-01T12:29:13.962Z,11.85
2023-04-01T12:30:13.949Z,11.86
2023-04-01T12:31:13.936Z,11.89
2023-04-01T12:32:13.970Z,11.96
2023-04-01T12:33:13.921Z,12.06
2023-04-01T12:34:13.891Z,12.16
2023-04-01T12:35:13.902Z,12.30
2023-04-01T12:36:13.918Z,12.26
2023-04-01T12:37:13.868Z,12.29
2023-04-01T12:38:13.846Z,12.38
2023-04-01T12:39:13.839Z,12.48
2023-04-01T12:40:13.826Z,12.49
2023-04-01T12:41:13.807Z,12.42
2023-04-01T12:42:13.790Z,12.48
2023-04-01T12:43:13.778Z,12.59
2023-04-01T12:44:13.765Z,12.64
2023-04-01T12:45:14.108Z,12.64
2023-04-01T12:46:13.832Z,12.67
2023-04-01T12:47:13.738Z,12.54
2023-04-01T12:48:13.702Z,12.51
2023-04-01T12:49:13.700Z,12.56
2023-04-01T12:50:13.691Z,12.49
2023-04-01T12:51:13.663Z,12.46
2023-04-01T12:52:13.659Z,12.42
2023-04-01T12:53:13.644Z,12.42
2023-04-01T12:54:13.616Z,12.39
2023-04-01T12:55:13.735Z,12.33
2023-04-01T12:56:13.595Z,12.23
2023-04-01T12:57:13.652Z,12.11
2023-04-01T12:58:13.573Z,12.13
2023-04-01T12:59:13.586Z,12.05
2023-04-01T13:00:13.648Z,11.94
2023-04-01T13:01:13.552Z,11.90
2023-04-01T13:02:13.517Z,11.87
2023-04-01T13:03:13.509Z,11.90
2023-04-01T13:04:13.529Z,11.94
2023-04-01T13:05:13.488Z,11.89
2023-04-01T13:06:13.473Z,11.86
2023-04-01T13:07:13.462Z,11.83
2023-04-01T13:08:13.433Z,11.86
2023-04-01T13:09:13.440Z,11.87
2023-04-01T13:10:13.441Z,11.90
2023-04-01T13:11:13.408Z,11.96
2023-04-01T13:12:13.385Z,12.01
2023-04-01T13:13:13.374Z,12.02
2023-04-01T13:14:24.954Z,12.04
2023-04-01T13:15:14.387Z,12.02
2023-04-01T13:16:13.420Z,11.99
2023-04-01T13:17:13.493Z,12.01
2023-04-01T13:18:13.310Z,11.94
2023-04-01T13:19:13.300Z,11.96
2023-04-01T13:20:13.300Z,11.96
2023-04-01T13:21:13.281Z,11.99
2023-04-01T13:22:13.278Z,12.04
2023-04-01T13:23:13.258Z,12.05
2023-04-01T13:24:13.230Z,12.06
2023-04-01T13:25:13.235Z,12.05
2023-04-01T13:26:15.150Z,12.08
2023-04-01T13:27:13.197Z,12.08
2023-04-01T13:28:13.250Z,12.05
2023-04-01T13:29:13.166Z,12.11
2023-04-01T13:30:13.160Z,12.08
2023-04-01T13:31:13.203Z,12.04
2023-04-01T13:32:13.126Z,12.04
2023-04-01T13:33:13.122Z,12.05
2023-04-01T13:34:13.098Z,12.08
2023-04-01T13:35:13.094Z,12.02
2023-04-01T13:36:13.107Z,12.04
2023-04-01T13:37:13.057Z,12.05
2023-04-01T13:38:13.051Z,12.08
2023-04-01T13:39:13.039Z,12.08
2023-04-01T13:40:13.022Z,12.04
2023-04-01T13:41:13.026Z,11.99
2023-04-01T13:42:12.991Z,11.96
2023-04-01T13:43:12.978Z,11.89
2023-04-01T13:44:12.966Z,11.86
2023-04-01T13:45:12.952Z,11.83
2023-04-01T13:46:12.992Z,11.89
2023-04-01T13:47:12.926Z,11.86
2023-04-01T13:48:14.916Z,11.83
2023-04-01T13:49:12.892Z,11.82
2023-04-01T13:50:12.900Z,11.86
2023-04-01T13:51:12.878Z,11.80
2023-04-01T13:52:12.858Z,11.80
2023-04-01T13:53:12.863Z,11.86
2023-04-01T13:54:12.837Z,11.87
2023-04-01T13:55:12.812Z,11.86
2023-04-01T13:56:12.832Z,11.93
2023-04-01T13:57:12.827Z,11.86
2023-04-01T13:58:12.787Z,11.83
2023-04-01T13:59:12.771Z,11.86
2023-04-01T14:00:12.758Z,11.93
2023-04-01T14:01:12.799Z,11.94
2023-04-01T14:02:12.729Z,11.99
2023-04-01T14:03:12.811Z,12.02
2023-04-01T14:04:12.733Z,12.08
2023-04-01T14:05:12.684Z,12.08
2023-04-01T14:06:12.680Z,12.04
2023-04-01T14:07:12.669Z,11.99
2023-04-01T14:08:12.648Z,11.89
2023-04-01T14:09:12.630Z,11.87
2023-04-01T14:10:12.644Z,11.86
2023-04-01T14:11:12.608Z,11.83
2023-04-01T14:12:12.608Z,11.82
2023-04-01T14:13:12.576Z,11.80
2023-04-01T14:14:12.593Z,11.85
2023-04-01T14:15:12.554Z,11.89
2023-04-01T14:16:12.565Z,11.94
2023-04-01T14:17:12.537Z,11.86
2023-04-01T14:18:12.557Z,11.83
2023-04-01T14:19:12.498Z,11.86
2023-04-01T14:20:12.510Z,11.85
2023-04-01T14:21:12.472Z,11.87
2023-04-01T14:22:12.506Z,11.90
2023-04-01T14:23:12.442Z,11.94
2023-04-01T14:24:12.437Z,11.99
2023-04-01T14:25:12.424Z,11.99
2023-04-01T14:26:12.438Z,11.94
2023-04-01T14:27:12.429Z,11.85
2023-04-01T14:28:12.390Z,11.87
2023-04-01T14:29:12.366Z,11.87
2023-04-01T14:30:12.361Z,11.87
2023-04-01T14:31:12.345Z,11.85
2023-04-01T14:32:12.415Z,11.89
2023-04-01T14:33:12.352Z,11.89
2023-04-01T14:34:12.309Z,11.90
2023-04-01T14:35:12.288Z,11.96
2023-04-01T14:36:12.308Z,11.93
2023-04-01T14:37:12.275Z,11.89
2023-04-01T14:38:12.251Z,11.87
2023-04-01T14:39:12.238Z,11.89
2023-04-01T14:40:12.224Z,11.93
2023-04-01T14:41:12.291Z,11.96
2023-04-01T14:42:21.378Z,12.01
2023-04-01T14:43:13.183Z,12.04
2023-04-01T14:44:12.173Z,12.02
2023-04-01T14:45:12.166Z,12.02
2023-04-01T14:46:12.172Z,12.02
2023-04-01T14:47:12.140Z,12.01
2023-04-01T14:48:12.131Z,12.04
2023-04-01T14:49:12.114Z,12.02
2023-04-01T14:50:12.089Z,12.04
2023-04-01T14:51:12.100Z,12.06
2023-04-01T14:52:12.070Z,12.05
2023-04-01T14:53:12.053Z,12.04
2023-04-01T14:54:12.032Z,12.06
2023-04-01T14:55:12.032Z,12.06
2023-04-01T14:56:12.018Z,12.06
2023-04-01T14:57:12.063Z,12.06
2023-04-01T14:58:12.011Z,12.06
2023-04-01T14:59:11.981Z,12.05
2023-04-01T15:00:11.968Z,12.06
2023-04-01T15:01:11.986Z,12.05
2023-04-01T15:02:11.944Z,12.02
2023-04-01T15:03:11.935Z,12.02
2023-04-01T15:04:11.909Z,12.01
2023-04-01T15:05:12.053Z,11.99
2023-04-01T15:06:11.888Z,11.94
2023-04-01T15:07:11.877Z,11.93
2023-04-01T15:08:11.879Z,11.83
2023-04-01T15:09:11.873Z,11.80
2023-04-01T15:10:11.841Z,11.80
2023-04-01T15:11:11.849Z,11.77
2023-04-01T15:12:11.802Z,11.72
2023-04-01T15:13:11.795Z,11.68
2023-04-01T15:14:11.776Z,11.68
2023-04-01T15:15:11.807Z,11.67
2023-04-01T15:16:11.790Z,11.64
2023-04-01T15:17:11.742Z,11.59
2023-04-01T15:18:11.772Z,11.59
2023-04-01T15:19:11.724Z,11.57
2023-04-01T15:20:11.707Z,11.61
2023-04-01T15:21:11.689Z,11.62
2023-04-01T15:22:11.697Z,11.59
2023-04-01T15:23:11.664Z,11.61
2023-04-01T15:24:11.644Z,11.62
2023-04-01T15:25:11.652Z,11.64
2023-04-01T15:26:11.625Z,11.65
2023-04-01T15:27:13.734Z,11.62
2023-04-01T15:28:11.589Z,11.61
2023-04-01T15:29:11.589Z,11.59
2023-04-01T15:30:11.571Z,11.57
2023-04-01T15:31:11.602Z,11.59
2023-04-01T15:32:11.555Z,11.57
2023-04-01T15:33:11.540Z,11.53
2023-04-01T15:34:11.513Z,11.54
2023-04-01T15:35:11.508Z,11.54
2023-04-01T15:36:11.548Z,11.57
2023-04-01T15:37:11.481Z,11.61
2023-04-01T15:38:11.478Z,11.59
2023-04-01T15:39:11.459Z,11.57
2023-04-01T15:40:11.449Z,11.57
2023-04-01T15:41:11.442Z,11.56
2023-04-01T15:42:11.449Z,11.56
2023-04-01T15:43:11.412Z,11.54
2023-04-01T15:44:11.388Z,11.52
2023-04-01T15:45:11.378Z,11.50
2023-04-01T15:46:11.414Z,11.50
2023-04-01T15:47:11.348Z,11.49
2023-04-01T15:48:11.346Z,11.49
2023-04-01T15:49:11.329Z,11.46
2023-04-01T15:50:11.306Z,11.47
2023-04-01T15:51:11.296Z,11.50
2023-04-01T15:52:11.287Z,11.50
2023-04-01T15:53:11.583Z,11.50
2023-04-01T15:54:11.255Z,11.54
2023-04-01T15:55:11.242Z,11.61
2023-04-01T15:56:11.232Z,11.65
2023-04-01T15:57:11.248Z,11.70
2023-04-01T15:58:11.200Z,11.74
2023-04-01T15:59:11.179Z,11.78
2023-04-01T16:00:11.163Z,11.83
2023-04-01T16:01:11.159Z,11.83
2023-04-01T16:02:11.200Z,11.87
2023-04-01T16:03:11.208Z,11.90
2023-04-01T16:04:11.210Z,11.89
2023-04-01T16:05:11.105Z,11.87
2023-04-01T16:06:11.093Z,11.89
2023-04-01T16:07:11.079Z,11.93
2023-04-01T16:08:11.077Z,11.90
2023-04-01T16:09:11.048Z,11.93
2023-04-01T16:10:11.042Z,11.93
2023-04-01T16:11:11.026Z,11.93
2023-04-01T16:12:11.008Z,11.90
2023-04-01T16:13:11.018Z,11.90
2023-04-01T16:14:10.981Z,11.93
2023-04-01T16:15:10.979Z,11.94
2023-04-01T16:16:10.972Z,11.94
2023-04-01T16:17:10.944Z,11.93
2023-04-01T16:18:11.023Z,11.90
2023-04-01T16:19:10.913Z,11.90
2023-04-01T16:20:10.917Z,11.93
2023-04-01T16:21:10.886Z,11.93
2023-04-01T16:22:10.877Z,11.89
2023-04-01T16:23:10.869Z,11.89
2023-04-01T16:24:10.848Z,11.87
2023-04-01T16:25:10.844Z,11.83
2023-04-01T16:26:10.822Z,11.80
2023-04-01T16:27:10.812Z,11.74
2023-04-01T16:28:10.815Z,11.67
2023-04-01T16:29:10.787Z,11.67
2023-04-01T16:30:10.780Z,11.65
2023-04-01T16:31:10.763Z,11.64
2023-04-01T16:32:10.849Z,11.62
2023-04-01T16:33:10.744Z,11.61
2023-04-01T16:34:10.721Z,11.62
2023-04-01T16:35:10.707Z,11.56
2023-04-01T16:36:11.722Z,11.50
2023-04-01T16:37:10.682Z,11.50
2023-04-01T16:38:10.700Z,11.47
2023-04-01T16:39:10.648Z,11.47
2023-04-01T16:40:10.642Z,11.47
2023-04-01T16:41:10.620Z,11.49
2023-04-01T16:42:10.663Z,11.49
2023-04-01T16:43:10.600Z,11.52
2023-04-01T16:44:10.591Z,11.54
2023-04-01T16:45:10.576Z,11.54
2023-04-01T16:46:10.621Z,11.56
2023-04-01T16:47:10.548Z,11.57
2023-04-01T16:48:10.564Z,11.57
2023-04-01T16:49:10.652Z,11.54
2023-04-01T16:50:10.524Z,11.53
2023-04-01T16:51:10.490Z,11.53
2023-04-01T16:52:10.491Z,11.56
2023-04-01T16:53:10.473Z,11.57
2023-04-01T16:54:10.455Z,11.56
2023-04-01T16:55:10.436Z,11.54
2023-04-01T16:56:10.421Z,11.56
2023-04-01T16:57:10.447Z,11.52
2023-04-01T16:58:10.418Z,11.49
2023-04-01T16:59:10.381Z,11.49
2023-04-01T17:00:10.378Z,11.49
2023-04-01T17:01:10.395Z,11.46
2023-04-01T17:02:10.399Z,11.46
2023-04-01T17:03:10.366Z,11.44
2023-04-01T17:04:10.341Z,11.46
2023-04-01T17:05:10.306Z,11.47
2023-04-01T17:06:10.311Z,11.47
2023-04-01T17:07:10.283Z,11.49
2023-04-01T17:08:10.302Z,11.47
2023-04-01T17:09:10.262Z,11.46
2023-04-01T17:10:10.262Z,11.44
2023-04-01T17:11:10.242Z,11.39
2023-04-01T17:12:10.256Z,11.44
2023-04-01T17:13:10.207Z,11.41
2023-04-01T17:14:10.211Z,11.41